Pagrindinis puslapis
METAR-TAF:

METAR-TAF

Oro uostai :

Kordoba, Ispanija

platuma: 37-51N, ilguma: 004-51W, Aukštis: 90 m

Dabartinis oras

Ataskaita buvo paskelbta 56 minutes, ne 13:30 UTC
Vėjas 10 kt iš Vakarų/Pietvakarių, svyruoja nuo Pietų/Pietvakarių ir Vakarų/Šiaurės Vakarų
Temperatūra 23°C
Drėgmė 29%
Slėgis 1008 hPa
Matomumas 10 km arba daugiau
Mažai debesys ne aukštis 3500 ft

METAR: LEBA 251330Z 25010KT 210V300 9999 FEW035 23/04 Q1008

Laikas: 16:26 (14:26 UTC)

Prognozė

Ataskaita buvo paskelbta 6 valandos ir 26 minutes, ne 08:00 UTC
Prognozė galioja nuo 25 metu 09 UTC su 26 metu 09 UTC
Vėjas 8 kt iš Pietvakarių
Matomumas 10 km arba daugiau
nėra debesų žemiau 1500 m ir nėra kamuolinių lietaus debesų

TAF: LEBA 250800Z 2509/2609 23008KT CAVOK TX24/2515Z TN07/2607Z

Orai ataskaitas ir orų prognozės (METAR, TAF).

turimą stotys yra geltonos ir raudonos taškus žemėlapyje.

Perkelti pele per norėdami pamatyti stoties vardą.

Tada spustelėkite, norėdami matyti oro stebėjimo ir prognozės.

Norėdami pakeisti žemėlapį: spustelėkite ant žalios mygtukų su juodo kryžiaus žemyn,; žalią mygtuką su brūkšneliu, jei norite nutolinti; arba žalių rodyklių gretimoms žemėlapius.


METAR-TAF: